SBCJ/CKS METAR and TAF weather

Enter ICAO airport designator
Station Type Date Time Source
SBCJ METAR 2021/10/22 18:00 UTC NOAA

SBCJ 221800Z 03002KT 9999 SCT019 26/21 Q1013


Station Type Date Time Source
SBCJ Decoded METAR 2021/10/22 18:00 UTC NOAA

Carajas / Maraba, Brazil (SBCJ) 06-07S 050-00W
Oct 22, 2021 - 02:00 PM EDT / 2021.10.22 1800 UTC
Wind: from the NNE (030 degrees) at 2 MPH (2 KT):0
Visibility: greater than 7 mile(s):0
Sky conditions: partly cloudy
Temperature: 78 F (26 C)
Dew Point: 69 F (21 C)
Relative Humidity: 73%
Pressure (altimeter): 29.91 in. Hg (1013 hPa)
ob: SBCJ 221800Z 03002KT 9999 SCT019 26/21 Q1013
cycle: 18

Station Type Date Time Source
SBCJ TAF 2021/10/22 18:36 UTC NOAA

TAF TAF SBCJ 221530Z 2218/2306 02010KT 8000 TS BKN020 FEW030CB TX28/2218Z TN22/2306Z
TEMPO 2218/2221 27015KT 5000 TSRA SCT012 BKN015 FEW025CB
BECMG 2222/2224 24010KT NSW SCT012 BKN015
BECMG 2304/2306 35007KT BKN012
RMK PGS

Example: see airport list